createdAt,value
2023-03-06T00:01:32.422Z,2.47
2023-03-06T00:04:04.649Z,2.47
2023-03-06T00:06:39.098Z,2.44
2023-03-06T00:09:11.065Z,2.44
2023-03-06T00:11:45.768Z,2.48
2023-03-06T00:14:23.393Z,2.46
2023-03-06T00:16:59.155Z,2.47
2023-03-06T00:19:31.907Z,2.38
2023-03-06T00:22:03.706Z,2.39
2023-03-06T00:24:35.687Z,2.42
2023-03-06T00:27:08.316Z,2.45
2023-03-06T00:29:42.704Z,2.46
2023-03-06T00:32:15.769Z,2.48
2023-03-06T00:34:52.447Z,2.49
2023-03-06T00:37:25.396Z,2.44
2023-03-06T00:39:57.340Z,2.42
2023-03-06T00:42:29.393Z,2.43
2023-03-06T00:45:07.529Z,2.45
2023-03-06T00:47:40.476Z,2.46
2023-03-06T00:50:15.206Z,2.45
2023-03-06T00:52:47.008Z,2.39
2023-03-06T00:55:21.671Z,2.36
2023-03-06T00:57:56.628Z,2.35
2023-03-06T01:00:28.749Z,2.29
2023-03-06T01:03:06.238Z,2.33
2023-03-06T01:05:38.873Z,2.31
2023-03-06T01:08:14.944Z,2.27
2023-03-06T01:10:46.757Z,2.27
2023-03-06T01:13:25.236Z,2.27
2023-03-06T01:16:09.047Z,2.25
2023-03-06T01:18:44.035Z,2.26
2023-03-06T01:21:16.924Z,2.28
2023-03-06T01:23:49.060Z,2.31
2023-03-06T01:26:24.234Z,2.32
2023-03-06T01:28:59.686Z,2.31
2023-03-06T01:31:33.696Z,2.30
2023-03-06T01:34:05.582Z,2.24
2023-03-06T01:36:37.754Z,2.28
2023-03-06T01:39:10.617Z,2.31
2023-03-06T01:41:42.467Z,2.26
2023-03-06T01:44:14.977Z,2.23
2023-03-06T01:46:47.148Z,2.21
2023-03-06T01:49:22.573Z,2.16
2023-03-06T01:52:02.621Z,2.14
2023-03-06T01:54:51.705Z,2.18
2023-03-06T01:57:36.613Z,2.14
2023-03-06T02:00:11.156Z,2.11
2023-03-06T02:03:06.002Z,2.12
2023-03-06T02:05:39.472Z,2.11
2023-03-06T02:08:18.985Z,2.11
2023-03-06T02:11:15.360Z,2.12
2023-03-06T02:13:49.079Z,2.14
2023-03-06T02:16:25.850Z,2.09
2023-03-06T02:19:01.441Z,2.08
2023-03-06T02:21:36.229Z,2.02
2023-03-06T02:24:22.548Z,2.00
2023-03-06T02:26:56.381Z,2.02
2023-03-06T02:29:32.246Z,2.04
2023-03-06T02:32:07.502Z,2.03
2023-03-06T02:34:41.979Z,2.03
2023-03-06T02:37:14.122Z,2.04
2023-03-06T02:39:52.171Z,2.01
2023-03-06T02:42:28.982Z,2.02
2023-03-06T02:45:03.695Z,2.00
2023-03-06T02:47:35.541Z,2.03
2023-03-06T02:50:07.760Z,2.05
2023-03-06T02:52:39.621Z,2.06
2023-03-06T02:55:11.712Z,2.09
2023-03-06T02:57:43.666Z,2.09
2023-03-06T03:00:19.236Z,2.02
2023-03-06T03:02:51.572Z,2.03
2023-03-06T03:05:24.996Z,1.99
2023-03-06T03:08:04.366Z,1.99
2023-03-06T03:10:36.277Z,2.01
2023-03-06T03:13:09.134Z,2.01
2023-03-06T03:15:44.425Z,1.99
2023-03-06T03:18:16.255Z,1.99
2023-03-06T03:20:48.043Z,1.96
2023-03-06T03:23:19.894Z,1.94
2023-03-06T03:25:51.939Z,1.95
2023-03-06T03:28:26.285Z,1.97
2023-03-06T03:31:07.656Z,1.95
2023-03-06T03:33:43.927Z,1.96
2023-03-06T03:36:18.284Z,1.95
2023-03-06T03:38:56.042Z,1.96
2023-03-06T03:41:27.871Z,1.94
2023-03-06T03:44:08.973Z,1.91
2023-03-06T03:46:44.619Z,1.92
2023-03-06T03:49:22.163Z,1.90
2023-03-06T03:51:54.226Z,1.81
2023-03-06T03:54:27.549Z,1.77
2023-03-06T03:57:00.449Z,1.75
2023-03-06T03:59:37.634Z,1.73
2023-03-06T04:02:22.279Z,1.73
2023-03-06T04:05:02.642Z,1.72
2023-03-06T04:07:34.570Z,1.70
2023-03-06T04:10:11.473Z,1.62
2023-03-06T04:12:43.300Z,1.64
2023-03-06T04:15:23.167Z,1.59
2023-03-06T04:17:56.231Z,1.58
2023-03-06T04:20:32.505Z,1.62
2023-03-06T04:23:05.664Z,1.58
2023-03-06T04:25:39.139Z,1.58
2023-03-06T04:28:16.961Z,1.58
2023-03-06T04:30:52.538Z,1.54
2023-03-06T04:33:25.907Z,1.50
2023-03-06T04:35:59.406Z,1.53
2023-03-06T04:38:34.731Z,1.55
2023-03-06T04:41:09.268Z,1.54
2023-03-06T04:43:44.252Z,1.49
2023-03-06T04:46:16.183Z,1.46
2023-03-06T04:48:48.040Z,1.47
2023-03-06T04:51:19.828Z,1.46
2023-03-06T04:53:52.423Z,1.44
2023-03-06T04:56:24.349Z,1.45
2023-03-06T04:59:06.339Z,1.44
2023-03-06T05:01:38.164Z,1.45
2023-03-06T05:04:34.916Z,1.43
2023-03-06T05:07:06.620Z,1.43
2023-03-06T05:09:39.207Z,1.43
2023-03-06T05:12:11.060Z,1.44
2023-03-06T05:14:43.901Z,1.45
2023-03-06T05:17:21.833Z,1.48
2023-03-06T05:19:54.867Z,1.45
2023-03-06T05:22:26.763Z,1.45
2023-03-06T05:24:58.633Z,1.46
2023-03-06T05:27:33.587Z,1.50
2023-03-06T05:30:05.476Z,1.47
2023-03-06T05:32:41.624Z,1.46
2023-03-06T05:35:21.894Z,1.48
2023-03-06T05:37:53.709Z,1.50
2023-03-06T05:40:26.115Z,1.46
2023-03-06T05:42:58.060Z,1.42
2023-03-06T05:45:29.851Z,1.41
2023-03-06T05:48:01.967Z,1.45
2023-03-06T05:50:33.889Z,1.51
2023-03-06T05:53:09.720Z,1.54
2023-03-06T05:55:41.734Z,1.54
2023-03-06T05:58:13.496Z,1.58
2023-03-06T06:00:45.315Z,1.64
2023-03-06T06:03:17.076Z,1.70
2023-03-06T06:08:45.330Z,1.87
2023-03-06T06:11:18.560Z,1.98
2023-03-06T06:13:50.516Z,2.05
2023-03-06T06:16:22.571Z,2.12
2023-03-06T06:18:54.405Z,2.23
2023-03-06T06:21:26.206Z,2.34
2023-03-06T06:23:58.010Z,2.40
2023-03-06T06:26:30.432Z,2.36
2023-03-06T06:29:04.638Z,2.38
2023-03-06T06:31:46.781Z,2.38
2023-03-06T06:34:19.191Z,2.43
2023-03-06T06:36:53.504Z,2.40
2023-03-06T06:39:25.619Z,2.40
2023-03-06T06:42:21.719Z,2.52
2023-03-06T06:44:55.032Z,2.66
2023-03-06T06:47:28.861Z,2.74
2023-03-06T06:50:00.748Z,2.87
2023-03-06T06:52:35.088Z,3.06
2023-03-06T06:55:08.115Z,3.49
2023-03-06T06:57:42.067Z,4.01
2023-03-06T07:00:16.923Z,4.22
2023-03-06T07:02:49.429Z,4.53
2023-03-06T07:05:22.187Z,4.53
2023-03-06T07:07:54.107Z,4.47
2023-03-06T07:10:28.968Z,4.31
2023-03-06T07:13:01.755Z,4.24
2023-03-06T07:15:34.116Z,4.25
2023-03-06T07:18:11.250Z,4.26
2023-03-06T07:20:43.362Z,4.16
2023-03-06T07:23:18.339Z,4.02
2023-03-06T07:25:51.314Z,3.98
2023-03-06T07:28:23.877Z,3.91
2023-03-06T07:30:55.859Z,3.88
2023-03-06T07:33:31.104Z,3.70
2023-03-06T07:36:04.040Z,3.64
2023-03-06T07:38:36.086Z,3.57
2023-03-06T07:41:13.348Z,3.53
2023-03-06T07:43:46.509Z,3.47
2023-03-06T07:46:18.559Z,3.43
2023-03-06T07:48:50.797Z,3.44
2023-03-06T07:51:23.020Z,3.43
2023-03-06T07:53:54.928Z,3.52
2023-03-06T07:56:26.852Z,3.53
2023-03-06T07:58:58.668Z,3.41
2023-03-06T08:01:31.779Z,3.44
2023-03-06T08:04:03.828Z,3.50
2023-03-06T08:06:35.761Z,3.51
2023-03-06T08:09:08.699Z,3.47
2023-03-06T08:11:41.408Z,3.53
2023-03-06T08:14:16.540Z,3.53
2023-03-06T08:16:53.210Z,3.64
2023-03-06T08:19:25.054Z,3.70
2023-03-06T08:21:59.897Z,3.82
2023-03-06T08:24:33.021Z,3.74
2023-03-06T08:27:04.914Z,3.75
2023-03-06T08:29:36.796Z,3.74
2023-03-06T08:32:12.320Z,3.70
2023-03-06T08:34:46.168Z,3.76
2023-03-06T08:37:21.982Z,3.86
2023-03-06T08:39:53.887Z,3.98
2023-03-06T08:42:25.727Z,4.06
2023-03-06T08:44:57.712Z,4.04
2023-03-06T08:47:29.563Z,4.06
2023-03-06T08:50:01.640Z,4.16
2023-03-06T08:52:33.451Z,4.24
2023-03-06T08:55:07.220Z,4.25
2023-03-06T08:57:39.225Z,4.29
2023-03-06T09:00:15.377Z,4.35
2023-03-06T09:02:47.489Z,4.44
2023-03-06T09:05:20.441Z,4.59
2023-03-06T09:07:55.236Z,4.72
2023-03-06T09:10:30.052Z,4.81
2023-03-06T09:13:03.876Z,4.95
2023-03-06T09:15:43.013Z,5.01
2023-03-06T09:18:17.746Z,5.05
2023-03-06T09:20:52.316Z,5.18
2023-03-06T09:23:24.353Z,5.23
2023-03-06T09:25:58.763Z,5.19
2023-03-06T09:28:30.791Z,5.38
2023-03-06T09:31:12.050Z,5.75
2023-03-06T09:33:45.069Z,5.70
2023-03-06T09:36:22.641Z,5.77
2023-03-06T09:38:54.664Z,6.01
2023-03-06T09:41:32.161Z,6.16
2023-03-06T09:44:18.004Z,6.33
2023-03-06T09:46:58.942Z,6.22
2023-03-06T09:49:38.742Z,6.16
2023-03-06T09:52:31.975Z,6.11
2023-03-06T09:55:41.075Z,5.96
2023-03-06T09:58:27.386Z,5.93
2023-03-06T10:01:15.980Z,5.85
2023-03-06T10:04:32.174Z,5.77
2023-03-06T10:07:27.781Z,5.61
2023-03-06T10:10:06.855Z,5.62
2023-03-06T10:12:53.508Z,5.47
2023-03-06T10:15:32.447Z,5.47
2023-03-06T10:18:05.474Z,5.46
2023-03-06T10:20:52.640Z,5.40
2023-03-06T10:23:39.854Z,5.25
2023-03-06T10:26:22.908Z,5.19
2023-03-06T10:29:02.579Z,5.23
2023-03-06T10:31:34.911Z,5.19
2023-03-06T10:34:22.786Z,5.17
2023-03-06T10:36:58.607Z,5.10
2023-03-06T10:39:33.387Z,5.00
2023-03-06T10:42:10.745Z,5.06
2023-03-06T10:44:44.355Z,5.08
2023-03-06T10:47:31.934Z,5.13
2023-03-06T10:50:27.319Z,5.22
2023-03-06T10:53:06.449Z,5.36
2023-03-06T10:55:42.679Z,5.41
2023-03-06T10:58:40.695Z,5.41
2023-03-06T11:01:21.659Z,5.46
2023-03-06T11:03:54.229Z,5.58
2023-03-06T11:06:35.163Z,5.62
2023-03-06T11:09:16.034Z,5.69
2023-03-06T11:11:48.028Z,5.80
2023-03-06T11:14:27.433Z,5.85
2023-03-06T11:17:01.414Z,5.86
2023-03-06T11:19:33.736Z,5.84
2023-03-06T11:22:21.111Z,5.98
2023-03-06T11:24:55.523Z,6.12
2023-03-06T11:27:38.186Z,6.15
2023-03-06T11:30:26.430Z,6.31
2023-03-06T11:33:08.882Z,6.53
2023-03-06T11:35:51.018Z,6.44
2023-03-06T11:38:37.978Z,6.37
2023-03-06T11:41:47.289Z,6.35
2023-03-06T11:44:24.393Z,6.36
2023-03-06T11:50:15.269Z,6.55
2023-03-06T11:52:58.759Z,6.56
2023-03-06T11:55:44.157Z,6.44
2023-03-06T11:58:44.302Z,6.45
2023-03-06T12:01:31.313Z,6.51
2023-03-06T12:04:36.538Z,6.71
2023-03-06T12:07:21.438Z,6.87
2023-03-06T12:10:08.523Z,7.09
2023-03-06T12:13:01.977Z,7.43
2023-03-06T12:15:53.942Z,7.50
2023-03-06T12:19:02.142Z,7.62
2023-03-06T12:21:47.331Z,7.87
2023-03-06T12:24:30.046Z,7.93
2023-03-06T12:27:25.865Z,7.75
2023-03-06T12:30:26.056Z,7.75
2023-03-06T12:33:28.714Z,7.72
2023-03-06T12:36:44.269Z,7.70
2023-03-06T12:39:54.104Z,7.53
2023-03-06T12:43:08.047Z,7.51
2023-03-06T12:45:44.337Z,7.44
2023-03-06T12:48:26.920Z,7.50
2023-03-06T12:51:03.194Z,7.52
2023-03-06T12:53:37.279Z,7.60
2023-03-06T12:56:13.643Z,7.60
2023-03-06T12:58:56.801Z,7.62
2023-03-06T13:02:00.489Z,7.60
2023-03-06T13:04:53.907Z,7.68
2023-03-06T13:07:34.610Z,7.63
2023-03-06T13:10:30.178Z,7.60
2023-03-06T13:13:05.212Z,7.54
2023-03-06T13:15:47.103Z,7.43
2023-03-06T13:18:25.125Z,7.33
2023-03-06T13:20:58.108Z,7.31
2023-03-06T13:23:35.234Z,7.24
2023-03-06T13:26:13.159Z,7.29
2023-03-06T13:28:51.444Z,7.30
2023-03-06T13:31:56.116Z,7.43
2023-03-06T13:34:31.959Z,7.45
2023-03-06T13:37:23.425Z,7.44
2023-03-06T13:39:55.583Z,7.44
2023-03-06T13:42:40.210Z,7.37
2023-03-06T13:45:26.147Z,7.45
2023-03-06T13:48:21.408Z,7.59
2023-03-06T13:50:56.534Z,7.73
2023-03-06T13:53:41.484Z,7.69
2023-03-06T13:56:51.007Z,7.74
2023-03-06T14:00:25.197Z,7.75
2023-03-06T14:03:47.985Z,7.54
2023-03-06T14:06:37.637Z,7.55
2023-03-06T14:09:22.888Z,7.50
2023-03-06T14:12:08.260Z,7.38
2023-03-06T14:14:49.517Z,7.26
2023-03-06T14:17:29.850Z,7.29
2023-03-06T14:20:14.254Z,7.31
2023-03-06T14:22:49.915Z,7.30
2023-03-06T14:25:31.403Z,7.29
2023-03-06T14:28:13.799Z,7.18
2023-03-06T14:30:51.040Z,7.13
2023-03-06T14:33:44.398Z,7.01
2023-03-06T14:36:20.394Z,6.94
2023-03-06T14:38:59.512Z,6.91
2023-03-06T14:41:34.681Z,6.91
2023-03-06T14:44:22.869Z,6.90
2023-03-06T14:46:57.092Z,6.92
2023-03-06T14:49:29.117Z,6.99
2023-03-06T14:52:01.385Z,7.05
2023-03-06T14:54:37.118Z,7.14
2023-03-06T14:57:20.256Z,7.14
2023-03-06T14:59:58.235Z,7.10
2023-03-06T15:02:34.061Z,7.07
2023-03-06T15:05:17.840Z,6.93
2023-03-06T15:07:52.107Z,6.82
2023-03-06T15:10:33.200Z,6.81
2023-03-06T15:13:24.359Z,6.78
2023-03-06T15:16:14.740Z,6.63
2023-03-06T15:18:59.108Z,6.36
2023-03-06T15:21:38.896Z,6.08
2023-03-06T15:24:34.366Z,5.92
2023-03-06T15:27:18.084Z,5.96
2023-03-06T15:29:50.270Z,5.85
2023-03-06T15:32:32.670Z,5.76
2023-03-06T15:35:32.816Z,5.70
2023-03-06T15:38:24.312Z,5.67
2023-03-06T15:41:00.082Z,5.65
2023-03-06T15:43:38.008Z,5.68
2023-03-06T15:46:11.463Z,5.75
2023-03-06T15:49:03.240Z,5.79
2023-03-06T15:51:37.973Z,5.64
2023-03-06T15:54:13.933Z,5.43
2023-03-06T15:56:49.085Z,5.33
2023-03-06T15:59:33.462Z,5.10
2023-03-06T16:02:18.798Z,4.92
2023-03-06T16:04:54.051Z,4.92
2023-03-06T16:07:29.212Z,4.79
2023-03-06T16:10:03.672Z,4.77
2023-03-06T16:12:36.039Z,4.74
2023-03-06T16:15:30.471Z,4.71
2023-03-06T16:18:02.354Z,4.61
2023-03-06T16:20:34.206Z,4.56
2023-03-06T16:23:10.796Z,4.56
2023-03-06T16:25:48.601Z,4.61
2023-03-06T16:28:20.763Z,4.56
2023-03-06T16:30:55.548Z,4.56
2023-03-06T16:33:27.884Z,4.62
2023-03-06T16:36:01.158Z,4.48
2023-03-06T16:38:33.109Z,4.53
2023-03-06T16:41:08.030Z,4.51
2023-03-06T16:43:39.867Z,4.46
2023-03-06T16:46:17.145Z,4.46
2023-03-06T16:48:49.125Z,4.46
2023-03-06T16:51:26.693Z,4.40
2023-03-06T16:53:59.431Z,4.27
2023-03-06T16:56:35.398Z,4.29
2023-03-06T16:59:10.116Z,4.31
2023-03-06T17:01:43.439Z,4.28
2023-03-06T17:04:15.792Z,4.24
2023-03-06T17:06:47.926Z,4.18
2023-03-06T17:09:29.833Z,4.14
2023-03-06T17:12:01.971Z,4.07
2023-03-06T17:14:38.513Z,4.09
2023-03-06T17:17:10.424Z,4.13
2023-03-06T17:19:50.775Z,4.16
2023-03-06T17:22:24.880Z,4.10
2023-03-06T17:24:58.296Z,4.04
2023-03-06T17:27:30.405Z,3.96
2023-03-06T17:30:03.111Z,3.94
2023-03-06T17:32:37.884Z,3.95
2023-03-06T17:35:10.814Z,3.93
2023-03-06T17:37:42.698Z,3.95
2023-03-06T17:40:15.782Z,3.98
2023-03-06T17:42:47.574Z,3.97
2023-03-06T17:45:19.400Z,3.93
2023-03-06T17:47:56.854Z,3.96
2023-03-06T17:50:28.697Z,3.95
2023-03-06T17:53:00.459Z,3.96
2023-03-06T17:55:32.710Z,4.00
2023-03-06T17:58:05.684Z,4.04
2023-03-06T18:00:38.790Z,4.07
2023-03-06T18:03:13.181Z,4.03
2023-03-06T18:05:45.508Z,3.97
2023-03-06T18:08:20.508Z,3.97
2023-03-06T18:10:52.922Z,4.00
2023-03-06T18:13:24.886Z,3.98
2023-03-06T18:15:57.277Z,3.98
2023-03-06T18:18:34.960Z,3.97
2023-03-06T18:21:11.178Z,3.91
2023-03-06T18:23:43.213Z,3.86
2023-03-06T18:26:21.892Z,3.84
2023-03-06T18:28:56.273Z,3.78
2023-03-06T18:31:39.224Z,3.79
2023-03-06T18:34:13.889Z,3.83
2023-03-06T18:36:53.120Z,3.83
2023-03-06T18:39:27.826Z,3.84
2023-03-06T18:41:59.998Z,3.85
2023-03-06T18:44:34.650Z,3.89
2023-03-06T18:47:06.672Z,3.88
2023-03-06T18:49:40.565Z,3.78
2023-03-06T18:52:16.343Z,3.76
2023-03-06T18:54:50.942Z,3.77
2023-03-06T18:57:24.065Z,3.82
2023-03-06T19:00:02.299Z,3.77
2023-03-06T19:02:47.479Z,3.70
2023-03-06T19:05:22.092Z,3.68
2023-03-06T19:07:58.573Z,3.68
2023-03-06T19:10:31.655Z,3.70
2023-03-06T19:13:05.295Z,3.71
2023-03-06T19:15:45.877Z,3.77
2023-03-06T19:18:18.526Z,3.76
2023-03-06T19:20:56.995Z,3.78
2023-03-06T19:23:32.071Z,3.83
2023-03-06T19:26:07.595Z,3.82
2023-03-06T19:28:45.096Z,3.79
2023-03-06T19:31:25.266Z,3.83
2023-03-06T19:34:00.332Z,3.83
2023-03-06T19:36:34.328Z,3.81
2023-03-06T19:39:07.895Z,3.85
2023-03-06T19:41:39.840Z,3.89
2023-03-06T19:44:13.001Z,3.90
2023-03-06T19:46:44.934Z,3.86
2023-03-06T19:49:18.261Z,3.86
2023-03-06T19:51:50.211Z,3.89
2023-03-06T19:54:23.588Z,3.99
2023-03-06T19:56:55.498Z,4.04
2023-03-06T19:59:31.241Z,4.11
2023-03-06T20:02:03.790Z,4.15
2023-03-06T20:04:36.916Z,4.18
2023-03-06T20:07:11.660Z,4.20
2023-03-06T20:09:43.836Z,4.16
2023-03-06T20:12:21.785Z,4.15
2023-03-06T20:14:53.827Z,4.14
2023-03-06T20:17:26.128Z,4.12
2023-03-06T20:19:59.197Z,4.13
2023-03-06T20:22:38.565Z,4.06
2023-03-06T20:25:10.711Z,4.03
2023-03-06T20:27:52.145Z,4.05
2023-03-06T20:30:31.521Z,4.02
2023-03-06T20:33:10.637Z,3.99
2023-03-06T20:35:44.498Z,3.97
2023-03-06T20:38:16.667Z,3.98
2023-03-06T20:40:48.614Z,3.95
2023-03-06T20:43:26.404Z,3.98
2023-03-06T20:46:02.694Z,3.92
2023-03-06T20:48:34.798Z,3.94
2023-03-06T20:51:32.156Z,3.91
2023-03-06T20:54:04.171Z,3.96
2023-03-06T20:56:39.638Z,4.01
2023-03-06T20:59:12.615Z,4.02
2023-03-06T21:01:46.075Z,3.87
2023-03-06T21:04:18.075Z,3.79
2023-03-06T21:06:55.745Z,3.77
2023-03-06T21:09:27.660Z,3.75
2023-03-06T21:11:59.882Z,3.72
2023-03-06T21:14:34.900Z,3.70
2023-03-06T21:17:06.767Z,3.69
2023-03-06T21:19:38.636Z,3.67
2023-03-06T21:22:10.774Z,3.67
2023-03-06T21:24:43.619Z,3.63
2023-03-06T21:27:15.980Z,3.66
2023-03-06T21:29:50.376Z,3.58
2023-03-06T21:32:25.380Z,3.53
2023-03-06T21:34:57.326Z,3.54
2023-03-06T21:37:32.313Z,3.53
2023-03-06T21:40:08.008Z,3.56
2023-03-06T21:42:40.737Z,3.48
2023-03-06T21:45:13.696Z,3.47
2023-03-06T21:47:49.025Z,3.46
2023-03-06T21:50:22.158Z,3.44
2023-03-06T21:52:56.448Z,3.40
2023-03-06T21:55:29.381Z,3.42
2023-03-06T21:58:10.166Z,3.43
2023-03-06T22:00:47.297Z,3.47
2023-03-06T22:03:19.256Z,3.46
2023-03-06T22:05:52.177Z,3.46
2023-03-06T22:08:25.508Z,3.45
2023-03-06T22:11:05.457Z,3.43
2023-03-06T22:13:40.357Z,3.44
2023-03-06T22:16:15.678Z,3.46
2023-03-06T22:18:49.538Z,3.47
2023-03-06T22:21:22.814Z,3.48
2023-03-06T22:23:59.920Z,3.51
2023-03-06T22:26:31.955Z,3.52
2023-03-06T22:29:07.033Z,3.53
2023-03-06T22:31:40.451Z,3.59
2023-03-06T22:34:15.645Z,3.60
2023-03-06T22:36:47.790Z,3.63
2023-03-06T22:39:20.013Z,3.63
2023-03-06T22:41:54.577Z,3.61
2023-03-06T22:44:29.344Z,3.63
2023-03-06T22:47:01.226Z,3.64
2023-03-06T22:49:33.457Z,3.62
2023-03-06T22:52:07.940Z,3.56
2023-03-06T22:54:48.771Z,3.53
2023-03-06T22:57:20.649Z,3.53
2023-03-06T22:59:55.509Z,3.57
2023-03-06T23:02:32.065Z,3.55
2023-03-06T23:05:04.121Z,3.46
2023-03-06T23:07:36.505Z,3.45
2023-03-06T23:10:09.109Z,3.48
2023-03-06T23:12:59.789Z,3.54
2023-03-06T23:15:49.975Z,3.57
2023-03-06T23:18:41.138Z,3.58
2023-03-06T23:21:31.784Z,3.56
2023-03-06T23:24:25.354Z,3.53
2023-03-06T23:26:57.094Z,3.47
2023-03-06T23:29:30.837Z,3.48
2023-03-06T23:32:06.608Z,3.47
2023-03-06T23:34:43.067Z,3.43
2023-03-06T23:37:16.105Z,3.42
2023-03-06T23:39:50.602Z,3.40
2023-03-06T23:42:25.680Z,3.42
2023-03-06T23:45:03.395Z,3.44
2023-03-06T23:47:35.362Z,3.45
2023-03-06T23:50:07.707Z,3.46
2023-03-06T23:52:40.373Z,3.42
2023-03-06T23:55:12.433Z,3.33
2023-03-06T23:57:47.504Z,3.36
